createdAt,value
2023-04-14T00:00:00.531Z,3.6
2023-04-14T00:05:00.551Z,4.7
2023-04-14T00:10:00.490Z,3.9
2023-04-14T00:15:00.560Z,4.8
2023-04-14T00:20:00.511Z,7.0
2023-04-14T00:25:00.490Z,4.5
2023-04-14T00:30:00.512Z,5.5
2023-04-14T00:35:00.601Z,4.1
2023-04-14T00:40:00.593Z,3.9
2023-04-14T00:45:00.750Z,4.2
2023-04-14T00:50:00.742Z,4.6
2023-04-14T00:55:00.510Z,4.5
2023-04-14T01:00:00.627Z,6.1
2023-04-14T01:05:00.620Z,5.6
2023-04-14T01:10:00.498Z,7.0
2023-04-14T01:15:00.631Z,5.4
2023-04-14T01:20:00.482Z,4.1
2023-04-14T01:25:00.496Z,6.3
2023-04-14T01:30:00.541Z,5.3
2023-04-14T01:35:00.592Z,6.9
2023-04-14T01:40:00.494Z,5.6
2023-04-14T01:45:00.500Z,6.7
2023-04-14T01:50:00.529Z,4.9
2023-04-14T01:55:00.521Z,4.1
2023-04-14T02:00:00.684Z,4.3
2023-04-14T02:05:00.495Z,6.0
2023-04-14T02:10:00.502Z,5.6
2023-04-14T02:15:00.512Z,7.0
2023-04-14T02:20:00.485Z,4.9
2023-04-14T02:25:00.489Z,8.1
2023-04-14T02:30:00.506Z,12.4
2023-04-14T02:35:00.830Z,10.8
2023-04-14T02:40:00.801Z,8.8
2023-04-14T02:45:00.488Z,7.8
2023-04-14T02:50:00.491Z,7.7
2023-04-14T02:55:00.508Z,12.0
2023-04-14T03:00:00.488Z,10.8
2023-04-14T03:05:00.491Z,5.8
2023-04-14T03:10:00.712Z,8.8
2023-04-14T03:15:00.501Z,8.4
2023-04-14T03:20:00.496Z,4.6
2023-04-14T03:25:00.498Z,8.8
2023-04-14T03:30:00.581Z,5.6
2023-04-14T03:35:00.549Z,7.0
2023-04-14T03:40:00.565Z,8.0
2023-04-14T03:45:00.506Z,5.3
2023-04-14T03:50:00.806Z,5.2
2023-04-14T03:55:00.492Z,4.8
2023-04-14T04:00:00.652Z,3.6
2023-04-14T04:05:01.229Z,5.6
2023-04-14T04:10:00.585Z,5.7
2023-04-14T04:15:00.542Z,7.1
2023-04-14T04:20:00.573Z,6.8
2023-04-14T04:25:00.497Z,5.3
2023-04-14T04:30:00.504Z,5.0
2023-04-14T04:35:00.501Z,10.2
2023-04-14T04:40:00.555Z,6.5
2023-04-14T04:45:00.599Z,7.6
2023-04-14T04:50:00.492Z,6.9
2023-04-14T04:55:00.505Z,7.5
2023-04-14T05:00:00.507Z,10.9
2023-04-14T05:05:00.503Z,8.0
2023-04-14T05:10:00.500Z,8.0
2023-04-14T05:15:00.502Z,8.5
2023-04-14T05:20:00.547Z,10.4
2023-04-14T05:25:00.494Z,11.2
2023-04-14T05:30:00.523Z,11.4
2023-04-14T05:35:00.906Z,11.0
2023-04-14T05:40:00.534Z,9.5
2023-04-14T05:45:01.129Z,11.3
2023-04-14T05:50:01.010Z,11.8
2023-04-14T05:55:00.497Z,10.5
2023-04-14T06:00:00.762Z,11.3
2023-04-14T06:05:00.924Z,11.0
2023-04-14T06:10:00.714Z,11.9
2023-04-14T06:15:00.612Z,14.0
2023-04-14T06:20:00.532Z,17.7
2023-04-14T06:25:00.646Z,15.2
2023-04-14T06:30:00.561Z,10.7
2023-04-14T06:35:00.493Z,14.3
2023-04-14T06:40:00.508Z,14.3
2023-04-14T06:45:00.625Z,11.3
2023-04-14T06:50:00.624Z,10.4
2023-04-14T06:55:00.501Z,15.8
2023-04-14T07:00:00.522Z,12.0
2023-04-14T07:05:00.612Z,9.4
2023-04-14T07:10:00.595Z,12.4
2023-04-14T07:15:00.544Z,15.9
2023-04-14T07:20:00.640Z,14.0
2023-04-14T07:25:00.530Z,16.4
2023-04-14T07:30:00.540Z,12.8
2023-04-14T07:35:00.549Z,15.6
2023-04-14T07:40:01.002Z,20.6
2023-04-14T07:45:00.785Z,11.6
2023-04-14T07:50:00.559Z,13.5
2023-04-14T07:55:00.525Z,10.1
2023-04-14T08:00:00.568Z,12.9
2023-04-14T08:05:00.626Z,7.8
2023-04-14T08:10:00.690Z,5.8
2023-04-14T08:15:00.500Z,15.2
2023-04-14T08:25:00.564Z,8.1
2023-04-14T08:30:00.585Z,9.9
2023-04-14T08:35:35.245Z,11.9
2023-04-14T08:40:00.726Z,10.4
2023-04-14T08:45:00.756Z,9.1
2023-04-14T08:50:00.709Z,9.4
2023-04-14T08:55:00.839Z,8.8
2023-04-14T09:00:01.324Z,6.8
2023-04-14T09:05:00.703Z,5.5
2023-04-14T09:10:00.712Z,9.1
2023-04-14T09:15:00.592Z,9.7
2023-04-14T09:20:37.999Z,10.5
2023-04-14T09:25:00.627Z,5.5
2023-04-14T09:30:00.742Z,7.2
2023-04-14T09:35:00.741Z,7.4
2023-04-14T09:40:00.745Z,7.8
2023-04-14T09:45:00.929Z,4.7
2023-04-14T09:50:00.695Z,3.8
2023-04-14T09:55:00.909Z,7.7
2023-04-14T10:00:00.682Z,6.3
2023-04-14T10:05:00.778Z,10.0
2023-04-14T10:10:00.950Z,5.8
2023-04-14T10:15:00.648Z,4.2
2023-04-14T10:20:01.130Z,6.3
2023-04-14T10:25:00.699Z,4.9
2023-04-14T10:30:00.742Z,6.4
2023-04-14T10:35:00.577Z,4.6
2023-04-14T10:40:00.755Z,3.7
2023-04-14T10:45:00.699Z,6.1
2023-04-14T10:50:00.707Z,4.1
2023-04-14T10:55:00.840Z,8.3
2023-04-14T11:00:00.648Z,6.4
2023-04-14T11:05:00.771Z,5.0
2023-04-14T11:10:00.922Z,5.4
2023-04-14T11:15:00.766Z,4.1
2023-04-14T11:20:00.660Z,4.2
2023-04-14T11:25:01.600Z,5.5
2023-04-14T11:35:00.567Z,6.7
2023-04-14T11:40:00.557Z,5.6
2023-04-14T11:45:00.514Z,6.5
2023-04-14T11:50:00.606Z,5.0
2023-04-14T11:55:00.939Z,5.2
2023-04-14T12:20:00.643Z,7.2
2023-04-14T12:25:00.605Z,7.2
2023-04-14T12:30:00.615Z,5.3
2023-04-14T12:35:00.626Z,5.5
2023-04-14T12:40:00.619Z,7.4
2023-04-14T12:45:00.691Z,4.5
2023-04-14T12:50:00.533Z,6.3
2023-04-14T12:55:00.563Z,4.3
2023-04-14T13:00:00.673Z,5.6
2023-04-14T13:05:00.538Z,4.3
2023-04-14T13:10:00.659Z,3.7
2023-04-14T13:15:00.587Z,3.4
2023-04-14T13:20:00.603Z,4.2
2023-04-14T13:25:00.691Z,3.4
2023-04-14T13:30:00.710Z,5.3
2023-04-14T13:35:00.431Z,3.8
2023-04-14T13:40:00.357Z,3.8
2023-04-14T13:45:00.545Z,3.8
2023-04-14T13:50:00.374Z,4.0
2023-04-14T13:55:03.776Z,2.8
2023-04-14T14:00:03.112Z,5.7
2023-04-14T14:05:00.580Z,5.5
2023-04-14T14:10:01.302Z,6.2
2023-04-14T14:15:00.638Z,5.2
2023-04-14T14:20:01.008Z,6.9
2023-04-14T14:25:14.895Z,5.8
2023-04-14T14:30:02.332Z,6.2
2023-04-14T14:35:01.144Z,3.5
2023-04-14T14:40:00.910Z,4.9
2023-04-14T14:45:00.896Z,7.5
2023-04-14T14:50:02.807Z,5.5
2023-04-14T14:55:01.898Z,6.3
2023-04-14T15:00:01.206Z,6.7
2023-04-14T15:05:00.749Z,7.2
2023-04-14T15:10:00.577Z,5.8
2023-04-14T15:15:00.616Z,5.6
2023-04-14T15:20:01.347Z,5.1
2023-04-14T15:25:00.670Z,10.1
2023-04-14T15:30:00.859Z,5.5
2023-04-14T15:35:01.154Z,6.9
2023-04-14T15:40:00.646Z,5.2
2023-04-14T15:45:00.613Z,5.0
2023-04-14T15:50:10.255Z,3.1
2023-04-14T15:55:00.715Z,4.6
2023-04-14T16:00:01.565Z,5.9
2023-04-14T16:05:01.761Z,6.2
2023-04-14T16:10:00.573Z,6.9
2023-04-14T16:15:00.758Z,6.9
2023-04-14T16:20:00.839Z,6.9
2023-04-14T16:25:00.706Z,7.7
2023-04-14T16:30:01.211Z,5.4
2023-04-14T16:35:00.627Z,5.3
2023-04-14T16:40:04.077Z,3.8
2023-04-14T16:45:00.831Z,7.6
2023-04-14T16:50:00.965Z,6.0
2023-04-14T16:55:01.116Z,6.0
2023-04-14T17:00:02.101Z,4.6
2023-04-14T17:05:00.749Z,4.8
2023-04-14T17:10:00.614Z,5.7
2023-04-14T17:15:01.423Z,3.9
2023-04-14T17:20:00.767Z,4.4
2023-04-14T17:25:00.533Z,4.8
2023-04-14T17:30:00.679Z,7.0
2023-04-14T17:35:01.347Z,11.1
2023-04-14T17:40:00.578Z,6.2
2023-04-14T17:45:02.101Z,7.3
2023-04-14T17:50:00.535Z,4.3
2023-04-14T17:55:00.601Z,8.8
2023-04-14T18:00:01.189Z,6.8
2023-04-14T18:05:00.799Z,6.7
2023-04-14T18:10:00.774Z,7.2
2023-04-14T18:15:01.997Z,6.6
2023-04-14T18:20:00.742Z,10.2
2023-04-14T18:25:00.784Z,8.4
2023-04-14T18:30:00.893Z,6.2
2023-04-14T18:35:01.118Z,7.8
2023-04-14T18:40:00.680Z,7.4
2023-04-14T18:45:00.785Z,6.1
2023-04-14T18:50:02.218Z,6.1
2023-04-14T18:55:01.141Z,8.1
2023-04-14T19:00:02.453Z,11.5
2023-04-14T19:05:01.220Z,7.7
2023-04-14T19:10:00.748Z,9.4
2023-04-14T19:15:00.724Z,7.1
2023-04-14T19:20:00.710Z,10.8
2023-04-14T19:25:00.847Z,6.4
2023-04-14T19:30:01.114Z,7.7
2023-04-14T19:35:00.721Z,9.1
2023-04-14T19:40:00.646Z,8.3
2023-04-14T19:45:01.015Z,9.3
2023-04-14T19:50:00.747Z,9.4
2023-04-14T19:55:00.877Z,6.7
2023-04-14T20:00:04.019Z,9.4
2023-04-14T20:05:00.872Z,14.0
2023-04-14T20:10:00.591Z,10.3
2023-04-14T20:15:00.817Z,10.3
2023-04-14T20:20:00.937Z,6.6
2023-04-14T20:25:01.033Z,11.1
2023-04-14T20:30:00.751Z,8.3
2023-04-14T20:35:00.976Z,11.1
2023-04-14T20:40:01.784Z,11.0
2023-04-14T20:45:00.580Z,12.0
2023-04-14T20:50:00.602Z,11.2
2023-04-14T20:55:00.710Z,9.6
2023-04-14T21:00:00.702Z,8.7
2023-04-14T21:05:00.800Z,11.3
2023-04-14T21:10:00.823Z,12.0
2023-04-14T21:15:46.759Z,9.8
2023-04-14T21:20:00.618Z,11.7
2023-04-14T21:25:00.624Z,10.5
2023-04-14T21:30:00.669Z,10.3
2023-04-14T21:35:01.413Z,10.9
2023-04-14T21:40:00.615Z,12.3
2023-04-14T21:45:00.621Z,11.1
2023-04-14T21:50:00.852Z,8.9
2023-04-14T21:55:00.580Z,9.6
2023-04-14T22:00:01.472Z,11.1
2023-04-14T22:05:00.510Z,9.3
2023-04-14T22:10:00.506Z,11.3
2023-04-14T22:15:00.655Z,10.2
2023-04-14T22:20:00.527Z,12.4
2023-04-14T22:25:01.322Z,11.5
2023-04-14T22:30:00.859Z,12.7
2023-04-14T22:35:00.538Z,9.3
2023-04-14T22:40:00.543Z,11.4
2023-04-14T22:45:00.613Z,11.8
2023-04-14T22:50:00.535Z,10.4
2023-04-14T22:55:00.596Z,10.3
2023-04-14T23:00:00.562Z,14.1
2023-04-14T23:05:00.544Z,11.4
2023-04-14T23:10:00.707Z,11.8
2023-04-14T23:15:00.613Z,10.4
2023-04-14T23:20:00.570Z,11.4
2023-04-14T23:25:00.609Z,11.5
2023-04-14T23:30:00.540Z,11.2
2023-04-14T23:35:00.542Z,10.7
2023-04-14T23:40:00.538Z,13.0
2023-04-14T23:45:00.519Z,12.7
2023-04-14T23:50:00.579Z,10.3
2023-04-14T23:55:00.696Z,11.7
